KTA weather

Karratha Airport
Karratha, Western Australia, Australia

Public forecast

Using degrees Celsius for public forecast. Weather courtesy of forecast.io.

METAR (pilot weather report)

Closest report is Barrow Island Airport, 77.3 nm (143.1 km) W. Retrieved 2018/10/18 15:00 UTC (27 minutes ago):

YBWX 181500Z AUTO 21029KT //// // ////// 22/16 Q1014

TAF (pilot weather forecast)

Closest forecast is Port Hedland International Airport, 106.1 nm (196.5 km) E. Retrieved 2018/10/18 12:37 UTC (3 hours ago):

TAF YPPD 181110Z 1812/1912 27010KT CAVOK FM182000 18010KT CAVOK FM190000 15010KT CAVOK FM190600 27014KT CAVOK